< < Back
Terminal Aerodrome Forecast


Current Version              Previous Versions:   1  2  3  4  5  6  7  8  9  

Terminal Aerodrome Forecast

268
FTUS44 KMRX 231723
TAFCHA
TAF
KCHA 231723Z 2318/2418 22005KT P6SM VCTS SCT040CB BKN120
     FM240200 25004KT P6SM VCSH SCT040 BKN150
     FM240900 VRB03KT 5SM BR SCT008 BKN030
     FM241400 24008KT P6SM VCTS BKN035CB=



Latest METAR

097
SAUS80 KWBC 232200
MTRCHA
METAR KCHA 232153Z 34005KT 10SM SCT040 SCT180 BKN250 29/21 A2999 RMK AO2
SLP147 T02940211


USA.gov is the U.S. government's official web portal to all federal, state and local government web resources and services.